sensor_id;sensor_type;location;lat;lon;timestamp;pressure;altitude;pressure_sealevel;temperature;humidity
12536;BME280;6334;48.696;2.114;2022-07-09T00:01:16;101117.00;;;21.16;54.55
12536;BME280;6334;48.696;2.114;2022-07-09T00:03:46;101115.24;;;21.42;53.79
12536;BME280;6334;48.696;2.114;2022-07-09T00:06:16;101116.67;;;21.45;53.04
12536;BME280;6334;48.696;2.114;2022-07-09T00:08:47;101115.55;;;21.39;53.20
12536;BME280;6334;48.696;2.114;2022-07-09T00:11:17;101114.89;;;21.14;53.96
12536;BME280;6334;48.696;2.114;2022-07-09T00:13:48;101118.94;;;21.32;53.76
12536;BME280;6334;48.696;2.114;2022-07-09T00:16:18;101115.22;;;21.13;54.72
12536;BME280;6334;48.696;2.114;2022-07-09T00:18:49;101110.75;;;21.07;54.66
12536;BME280;6334;48.696;2.114;2022-07-09T00:21:19;101112.00;;;21.00;54.29
12536;BME280;6334;48.696;2.114;2022-07-09T00:23:50;101112.95;;;21.10;55.17
12536;BME280;6334;48.696;2.114;2022-07-09T00:26:20;101111.30;;;21.23;54.41
12536;BME280;6334;48.696;2.114;2022-07-09T00:28:51;101108.63;;;21.17;55.14
12536;BME280;6334;48.696;2.114;2022-07-09T00:31:21;101104.53;;;21.14;55.35
12536;BME280;6334;48.696;2.114;2022-07-09T00:33:51;101070.23;;;20.89;54.84
12536;BME280;6334;48.696;2.114;2022-07-09T00:36:22;101102.56;;;21.04;55.55
12536;BME280;6334;48.696;2.114;2022-07-09T00:38:52;101101.41;;;21.09;55.97
12536;BME280;6334;48.696;2.114;2022-07-09T00:41:23;101080.23;;;20.96;54.94
12536;BME280;6334;48.696;2.114;2022-07-09T00:43:53;101097.48;;;21.12;55.10
12536;BME280;6334;48.696;2.114;2022-07-09T00:46:24;101096.64;;;20.86;56.14
12536;BME280;6334;48.696;2.114;2022-07-09T00:48:57;101097.54;;;20.93;56.72
12536;BME280;6334;48.696;2.114;2022-07-09T00:51:25;101093.89;;;20.99;55.49
12536;BME280;6334;48.696;2.114;2022-07-09T00:53:56;101079.41;;;20.95;56.30
12536;BME280;6334;48.696;2.114;2022-07-09T00:56:27;101093.28;;;20.78;57.36
12536;BME280;6334;48.696;2.114;2022-07-09T00:58:57;101093.07;;;20.78;56.99
12536;BME280;6334;48.696;2.114;2022-07-09T01:01:27;101090.98;;;20.72;56.14
12536;BME280;6334;48.696;2.114;2022-07-09T01:03:58;101095.30;;;20.80;56.16
12536;BME280;6334;48.696;2.114;2022-07-09T01:06:28;101092.52;;;20.78;57.54
12536;BME280;6334;48.696;2.114;2022-07-09T01:08:59;101090.19;;;20.72;57.35
12536;BME280;6334;48.696;2.114;2022-07-09T01:11:29;101090.65;;;20.75;56.89
12536;BME280;6334;48.696;2.114;2022-07-09T01:14:00;101092.81;;;20.65;57.12
12536;BME280;6334;48.696;2.114;2022-07-09T01:16:33;101093.47;;;20.66;57.19
12536;BME280;6334;48.696;2.114;2022-07-09T01:19:00;101084.94;;;20.54;58.69
12536;BME280;6334;48.696;2.114;2022-07-09T01:21:31;101082.27;;;20.58;58.43
12536;BME280;6334;48.696;2.114;2022-07-09T01:24:01;101082.08;;;20.60;57.73
12536;BME280;6334;48.696;2.114;2022-07-09T01:26:32;101082.42;;;20.71;57.46
12536;BME280;6334;48.696;2.114;2022-07-09T01:29:02;101077.52;;;20.67;57.68
12536;BME280;6334;48.696;2.114;2022-07-09T01:31:33;101075.23;;;20.44;57.84
12536;BME280;6334;48.696;2.114;2022-07-09T01:34:03;101076.12;;;20.47;58.54
12536;BME280;6334;48.696;2.114;2022-07-09T01:36:34;101075.27;;;20.57;58.62
12536;BME280;6334;48.696;2.114;2022-07-09T01:39:04;101071.47;;;20.52;58.71
12536;BME280;6334;48.696;2.114;2022-07-09T01:41:34;101067.94;;;20.41;58.49
12536;BME280;6334;48.696;2.114;2022-07-09T01:44:05;101064.25;;;20.31;58.89
12536;BME280;6334;48.696;2.114;2022-07-09T01:46:35;101065.52;;;20.31;58.79
12536;BME280;6334;48.696;2.114;2022-07-09T01:49:06;101064.11;;;20.25;59.71
12536;BME280;6334;48.696;2.114;2022-07-09T01:51:36;101058.38;;;20.30;59.73
12536;BME280;6334;48.696;2.114;2022-07-09T01:54:07;101056.12;;;20.35;58.96
12536;BME280;6334;48.696;2.114;2022-07-09T01:56:37;101058.17;;;20.44;58.67
12536;BME280;6334;48.696;2.114;2022-07-09T01:59:08;101057.16;;;20.38;59.37
12536;BME280;6334;48.696;2.114;2022-07-09T02:01:38;101054.98;;;20.40;59.44
12536;BME280;6334;48.696;2.114;2022-07-09T02:04:09;101054.16;;;20.33;59.65
12536;BME280;6334;48.696;2.114;2022-07-09T02:06:39;101050.48;;;20.33;59.36
12536;BME280;6334;48.696;2.114;2022-07-09T02:09:10;101054.88;;;20.30;59.32
12536;BME280;6334;48.696;2.114;2022-07-09T02:11:40;101046.94;;;20.21;59.64
12536;BME280;6334;48.696;2.114;2022-07-09T02:14:10;101047.70;;;20.18;60.09
12536;BME280;6334;48.696;2.114;2022-07-09T02:16:41;101042.72;;;20.25;60.08
12536;BME280;6334;48.696;2.114;2022-07-09T02:19:11;101039.69;;;20.34;59.91
12536;BME280;6334;48.696;2.114;2022-07-09T02:21:42;101038.36;;;20.21;60.17
12536;BME280;6334;48.696;2.114;2022-07-09T02:24:12;101032.63;;;20.35;60.01
12536;BME280;6334;48.696;2.114;2022-07-09T02:26:43;101031.84;;;20.22;60.18
12536;BME280;6334;48.696;2.114;2022-07-09T02:29:13;101012.55;;;20.04;60.84
12536;BME280;6334;48.696;2.114;2022-07-09T02:31:44;101024.14;;;20.03;61.22
12536;BME280;6334;48.696;2.114;2022-07-09T02:34:14;101027.53;;;19.74;61.52
12536;BME280;6334;48.696;2.114;2022-07-09T02:36:45;101024.13;;;19.63;61.71
12536;BME280;6334;48.696;2.114;2022-07-09T02:39:15;101025.23;;;19.92;61.71
12536;BME280;6334;48.696;2.114;2022-07-09T02:41:46;101018.67;;;19.91;61.44
12536;BME280;6334;48.696;2.114;2022-07-09T02:44:16;101017.72;;;19.92;61.39
12536;BME280;6334;48.696;2.114;2022-07-09T02:46:47;101019.58;;;19.89;61.97
12536;BME280;6334;48.696;2.114;2022-07-09T02:49:17;101016.34;;;19.92;61.72
12536;BME280;6334;48.696;2.114;2022-07-09T02:51:48;101018.13;;;19.93;61.75
12536;BME280;6334;48.696;2.114;2022-07-09T02:54:18;101015.59;;;19.91;62.01
12536;BME280;6334;48.696;2.114;2022-07-09T02:56:48;101021.75;;;19.85;61.40
12536;BME280;6334;48.696;2.114;2022-07-09T02:59:19;101024.33;;;19.84;61.96
12536;BME280;6334;48.696;2.114;2022-07-09T03:01:49;101023.28;;;19.91;61.95
12536;BME280;6334;48.696;2.114;2022-07-09T03:04:20;101026.56;;;19.83;62.07
12536;BME280;6334;48.696;2.114;2022-07-09T03:06:50;101021.98;;;19.83;62.14
12536;BME280;6334;48.696;2.114;2022-07-09T03:09:21;100997.50;;;19.48;62.94
12536;BME280;6334;48.696;2.114;2022-07-09T03:11:51;101028.89;;;19.80;62.44
12536;BME280;6334;48.696;2.114;2022-07-09T03:14:22;101028.84;;;19.79;61.95
12536;BME280;6334;48.696;2.114;2022-07-09T03:16:52;101031.22;;;19.69;62.03
12536;BME280;6334;48.696;2.114;2022-07-09T03:19:23;101031.75;;;19.71;62.79
12536;BME280;6334;48.696;2.114;2022-07-09T03:21:53;101033.91;;;19.83;62.28
12536;BME280;6334;48.696;2.114;2022-07-09T03:24:24;101035.05;;;19.81;61.67
12536;BME280;6334;48.696;2.114;2022-07-09T03:26:54;101032.55;;;19.76;62.46
12536;BME280;6334;48.696;2.114;2022-07-09T03:29:24;101030.80;;;19.77;63.50
12536;BME280;6334;48.696;2.114;2022-07-09T03:31:55;101033.56;;;19.67;62.53
12536;BME280;6334;48.696;2.114;2022-07-09T03:34:25;101040.62;;;19.72;62.68
12536;BME280;6334;48.696;2.114;2022-07-09T03:36:56;101043.86;;;19.75;62.12
12536;BME280;6334;48.696;2.114;2022-07-09T03:39:26;101049.09;;;19.69;63.09
12536;BME280;6334;48.696;2.114;2022-07-09T03:41:57;101048.16;;;19.69;62.69
12536;BME280;6334;48.696;2.114;2022-07-09T03:44:27;101051.81;;;19.78;63.22
12536;BME280;6334;48.696;2.114;2022-07-09T03:46:58;101052.83;;;19.66;63.04
12536;BME280;6334;48.696;2.114;2022-07-09T03:49:28;101044.52;;;19.64;63.12
12536;BME280;6334;48.696;2.114;2022-07-09T03:51:59;101034.39;;;19.46;63.12
12536;BME280;6334;48.696;2.114;2022-07-09T03:54:29;101042.62;;;19.66;62.78
12536;BME280;6334;48.696;2.114;2022-07-09T03:56:59;101041.09;;;19.61;63.44
12536;BME280;6334;48.696;2.114;2022-07-09T03:59:30;101038.95;;;19.76;62.68
12536;BME280;6334;48.696;2.114;2022-07-09T04:02:01;101037.47;;;19.66;62.95
12536;BME280;6334;48.696;2.114;2022-07-09T04:04:31;101042.38;;;19.73;62.82
12536;BME280;6334;48.696;2.114;2022-07-09T04:07:01;101042.97;;;19.76;62.83
12536;BME280;6334;48.696;2.114;2022-07-09T04:09:32;101037.11;;;19.49;63.30
12536;BME280;6334;48.696;2.114;2022-07-09T04:12:02;101044.75;;;19.46;63.61
12536;BME280;6334;48.696;2.114;2022-07-09T04:14:33;101045.92;;;19.35;64.02
12536;BME280;6334;48.696;2.114;2022-07-09T04:17:03;101044.67;;;19.47;63.61
12536;BME280;6334;48.696;2.114;2022-07-09T04:19:34;101051.53;;;19.37;64.00
12536;BME280;6334;48.696;2.114;2022-07-09T04:22:04;101056.67;;;19.32;64.42
12536;BME280;6334;48.696;2.114;2022-07-09T04:24:34;101056.94;;;19.40;64.14
12536;BME280;6334;48.696;2.114;2022-07-09T04:27:05;101061.16;;;19.10;65.43
12536;BME280;6334;48.696;2.114;2022-07-09T04:29:36;101061.06;;;18.87;65.68
12536;BME280;6334;48.696;2.114;2022-07-09T04:32:06;101064.25;;;18.84;65.70
12536;BME280;6334;48.696;2.114;2022-07-09T04:34:37;101068.81;;;19.03;65.13
12536;BME280;6334;48.696;2.114;2022-07-09T04:37:07;101072.61;;;18.87;65.46
12536;BME280;6334;48.696;2.114;2022-07-09T04:39:38;101069.16;;;19.10;64.87
12536;BME280;6334;48.696;2.114;2022-07-09T04:42:08;101062.95;;;18.82;65.74
12536;BME280;6334;48.696;2.114;2022-07-09T04:44:39;101060.17;;;18.54;66.84
12536;BME280;6334;48.696;2.114;2022-07-09T04:47:09;101064.77;;;18.68;66.72
12536;BME280;6334;48.696;2.114;2022-07-09T04:49:39;101064.85;;;18.81;66.24
12536;BME280;6334;48.696;2.114;2022-07-09T04:52:13;101068.88;;;19.13;65.53
12536;BME280;6334;48.696;2.114;2022-07-09T04:54:43;101064.51;;;19.24;64.70
12536;BME280;6334;48.696;2.114;2022-07-09T04:57:13;101056.76;;;19.25;64.81
12536;BME280;6334;48.696;2.114;2022-07-09T04:59:44;101056.69;;;19.13;65.94
12536;BME280;6334;48.696;2.114;2022-07-09T05:02:14;101062.44;;;19.38;65.46
12536;BME280;6334;48.696;2.114;2022-07-09T05:04:45;101059.05;;;19.37;66.20
12536;BME280;6334;48.696;2.114;2022-07-09T05:07:15;101056.91;;;19.57;64.87
12536;BME280;6334;48.696;2.114;2022-07-09T05:09:46;101060.89;;;19.44;64.52
12536;BME280;6334;48.696;2.114;2022-07-09T05:12:19;101057.53;;;19.36;65.38
12536;BME280;6334;48.696;2.114;2022-07-09T05:14:50;101056.47;;;19.57;65.07
12536;BME280;6334;48.696;2.114;2022-07-09T05:17:20;101058.07;;;19.64;64.94
12536;BME280;6334;48.696;2.114;2022-07-09T05:19:50;101059.41;;;19.53;64.99
12536;BME280;6334;48.696;2.114;2022-07-09T05:22:21;101063.94;;;19.38;65.41
12536;BME280;6334;48.696;2.114;2022-07-09T05:24:51;101060.78;;;19.14;65.76
12536;BME280;6334;48.696;2.114;2022-07-09T05:27:22;101063.70;;;19.19;65.95
12536;BME280;6334;48.696;2.114;2022-07-09T05:29:52;101049.85;;;19.32;65.57
12536;BME280;6334;48.696;2.114;2022-07-09T05:32:23;101067.45;;;19.35;64.88
12536;BME280;6334;48.696;2.114;2022-07-09T05:34:53;101067.11;;;19.13;65.84
12536;BME280;6334;48.696;2.114;2022-07-09T05:37:24;101065.34;;;19.13;66.23
12536;BME280;6334;48.696;2.114;2022-07-09T05:39:57;101059.42;;;19.51;64.97
12536;BME280;6334;48.696;2.114;2022-07-09T05:42:25;101059.15;;;19.35;65.77
12536;BME280;6334;48.696;2.114;2022-07-09T05:44:55;101059.55;;;19.64;66.02
12536;BME280;6334;48.696;2.114;2022-07-09T05:47:26;101066.67;;;19.92;64.68
12536;BME280;6334;48.696;2.114;2022-07-09T05:49:56;101068.34;;;20.00;64.46
12536;BME280;6334;48.696;2.114;2022-07-09T05:52:27;101065.35;;;19.94;65.24
12536;BME280;6334;48.696;2.114;2022-07-09T05:54:57;101060.47;;;20.19;64.17
12536;BME280;6334;48.696;2.114;2022-07-09T05:57:27;101061.36;;;20.16;64.39
12536;BME280;6334;48.696;2.114;2022-07-09T05:59:58;101059.09;;;19.90;64.87
12536;BME280;6334;48.696;2.114;2022-07-09T06:02:28;101060.33;;;20.29;64.12
12536;BME280;6334;48.696;2.114;2022-07-09T06:04:59;101057.86;;;20.17;64.38
12536;BME280;6334;48.696;2.114;2022-07-09T06:07:29;101058.54;;;20.20;64.14
12536;BME280;6334;48.696;2.114;2022-07-09T06:10:00;101058.86;;;19.80;65.62
12536;BME280;6334;48.696;2.114;2022-07-09T06:12:30;101054.78;;;20.17;64.20
12536;BME280;6334;48.696;2.114;2022-07-09T06:15:01;101058.59;;;20.41;63.59
12536;BME280;6334;48.696;2.114;2022-07-09T06:17:31;101061.61;;;20.98;61.55
12536;BME280;6334;48.696;2.114;2022-07-09T06:20:02;101058.23;;;20.69;62.53
12536;BME280;6334;48.696;2.114;2022-07-09T06:22:32;101056.77;;;20.27;64.39
12536;BME280;6334;48.696;2.114;2022-07-09T06:25:03;101056.17;;;20.85;62.33
12536;BME280;6334;48.696;2.114;2022-07-09T06:27:33;101058.30;;;20.84;62.06
12536;BME280;6334;48.696;2.114;2022-07-09T06:30:04;101061.27;;;21.27;60.77
12536;BME280;6334;48.696;2.114;2022-07-09T06:32:34;101062.98;;;21.20;61.11
12536;BME280;6334;48.696;2.114;2022-07-09T06:35:05;101058.64;;;20.59;63.48
12536;BME280;6334;48.696;2.114;2022-07-09T06:37:35;101062.82;;;20.89;62.95
12536;BME280;6334;48.696;2.114;2022-07-09T06:40:06;101069.22;;;21.18;62.25
12536;BME280;6334;48.696;2.114;2022-07-09T06:42:36;101059.98;;;21.55;60.94
12536;BME280;6334;48.696;2.114;2022-07-09T06:45:08;101077.44;;;22.10;58.90
12536;BME280;6334;48.696;2.114;2022-07-09T06:47:39;101075.95;;;22.71;57.28
12536;BME280;6334;48.696;2.114;2022-07-09T06:50:09;101072.23;;;22.93;56.78
12536;BME280;6334;48.696;2.114;2022-07-09T06:52:39;101026.60;;;22.78;56.53
12536;BME280;6334;48.696;2.114;2022-07-09T06:55:10;101071.52;;;22.58;57.99
12536;BME280;6334;48.696;2.114;2022-07-09T06:57:40;101070.28;;;22.97;57.25
12536;BME280;6334;48.696;2.114;2022-07-09T07:00:11;101072.40;;;23.24;56.06
12536;BME280;6334;48.696;2.114;2022-07-09T07:02:44;101069.23;;;23.10;56.56
12536;BME280;6334;48.696;2.114;2022-07-09T07:05:12;101071.36;;;23.38;55.84
12536;BME280;6334;48.696;2.114;2022-07-09T07:07:42;101064.03;;;23.39;56.98
12536;BME280;6334;48.696;2.114;2022-07-09T07:10:13;101065.95;;;23.74;55.52
12536;BME280;6334;48.696;2.114;2022-07-09T07:12:43;101072.20;;;23.73;55.24
12536;BME280;6334;48.696;2.114;2022-07-09T07:15:14;101070.22;;;24.01;54.64
12536;BME280;6334;48.696;2.114;2022-07-09T07:17:44;101069.89;;;24.07;54.42
12536;BME280;6334;48.696;2.114;2022-07-09T07:20:15;101067.30;;;23.79;55.11
12536;BME280;6334;48.696;2.114;2022-07-09T07:22:45;101065.02;;;23.84;55.26
12536;BME280;6334;48.696;2.114;2022-07-09T07:25:15;101067.14;;;23.78;54.82
12536;BME280;6334;48.696;2.114;2022-07-09T07:27:46;101067.34;;;24.04;54.99
12536;BME280;6334;48.696;2.114;2022-07-09T07:30:16;101068.61;;;24.46;53.83
12536;BME280;6334;48.696;2.114;2022-07-09T07:32:47;101071.44;;;24.37;54.01
12536;BME280;6334;48.696;2.114;2022-07-09T07:35:17;101066.41;;;24.69;53.25
12536;BME280;6334;48.696;2.114;2022-07-09T07:37:48;101065.30;;;24.30;54.26
12536;BME280;6334;48.696;2.114;2022-07-09T07:40:18;101070.42;;;24.77;53.85
12536;BME280;6334;48.696;2.114;2022-07-09T07:42:49;101076.27;;;25.06;53.43
12536;BME280;6334;48.696;2.114;2022-07-09T07:45:19;101067.21;;;25.11;53.45
12536;BME280;6334;48.696;2.114;2022-07-09T07:47:50;101072.01;;;24.63;53.84
12536;BME280;6334;48.696;2.114;2022-07-09T07:50:21;101075.97;;;24.90;53.25
12536;BME280;6334;48.696;2.114;2022-07-09T07:52:50;101074.66;;;24.74;52.43
12536;BME280;6334;48.696;2.114;2022-07-09T07:55:21;101082.81;;;25.24;52.40
12536;BME280;6334;48.696;2.114;2022-07-09T07:57:51;101077.77;;;25.41;51.44
12536;BME280;6334;48.696;2.114;2022-07-09T08:00:22;101079.23;;;25.32;52.32
12536;BME280;6334;48.696;2.114;2022-07-09T08:02:52;101076.95;;;25.64;50.82
12536;BME280;6334;48.696;2.114;2022-07-09T08:05:23;101066.09;;;24.68;50.46
12536;BME280;6334;48.696;2.114;2022-07-09T08:07:53;101063.56;;;25.19;50.41
12536;BME280;6334;48.696;2.114;2022-07-09T08:10:24;101065.03;;;25.64;48.02
12536;BME280;6334;48.696;2.114;2022-07-09T08:12:55;101065.48;;;25.32;49.00
12536;BME280;6334;48.696;2.114;2022-07-09T08:15:26;101067.25;;;25.58;49.24
12536;BME280;6334;48.696;2.114;2022-07-09T08:17:56;101067.06;;;25.76;47.88
12536;BME280;6334;48.696;2.114;2022-07-09T08:20:27;101070.42;;;25.53;48.82
12536;BME280;6334;48.696;2.114;2022-07-09T08:22:57;101063.84;;;25.92;47.35
12536;BME280;6334;48.696;2.114;2022-07-09T08:25:27;101064.86;;;26.39;47.88
12536;BME280;6334;48.696;2.114;2022-07-09T08:27:58;101061.65;;;26.08;47.92
12536;BME280;6334;48.696;2.114;2022-07-09T08:30:29;101059.44;;;26.37;46.92
12536;BME280;6334;48.696;2.114;2022-07-09T08:32:59;101057.57;;;26.57;46.73
12536;BME280;6334;48.696;2.114;2022-07-09T08:35:29;101059.14;;;26.75;46.93
12536;BME280;6334;48.696;2.114;2022-07-09T08:38:00;101058.38;;;25.94;47.39
12536;BME280;6334;48.696;2.114;2022-07-09T08:40:30;101052.59;;;26.36;47.08
12536;BME280;6334;48.696;2.114;2022-07-09T08:43:02;101056.22;;;26.47;47.93
12536;BME280;6334;48.696;2.114;2022-07-09T08:45:31;101055.62;;;26.61;46.27
12536;BME280;6334;48.696;2.114;2022-07-09T08:48:02;101058.61;;;26.53;46.93
12536;BME280;6334;48.696;2.114;2022-07-09T08:50:32;101058.13;;;26.58;47.36
12536;BME280;6334;48.696;2.114;2022-07-09T08:53:02;101055.25;;;26.35;45.36
12536;BME280;6334;48.696;2.114;2022-07-09T08:55:33;101052.89;;;27.01;46.29
12536;BME280;6334;48.696;2.114;2022-07-09T08:58:03;101056.78;;;26.84;46.60
12536;BME280;6334;48.696;2.114;2022-07-09T09:00:34;101051.08;;;26.51;47.28
12536;BME280;6334;48.696;2.114;2022-07-09T09:03:05;101045.99;;;26.73;45.98
12536;BME280;6334;48.696;2.114;2022-07-09T09:05:35;101046.45;;;26.53;46.43
12536;BME280;6334;48.696;2.114;2022-07-09T09:08:18;101052.80;;;26.62;46.21
12536;BME280;6334;48.696;2.114;2022-07-09T09:10:47;101049.67;;;26.74;44.13
12536;BME280;6334;48.696;2.114;2022-07-09T09:13:17;101046.62;;;26.41;45.65
12536;BME280;6334;48.696;2.114;2022-07-09T09:15:48;101037.81;;;26.78;44.21
12536;BME280;6334;48.696;2.114;2022-07-09T09:18:22;101040.42;;;27.37;44.64
12536;BME280;6334;48.696;2.114;2022-07-09T09:20:49;101042.77;;;27.03;45.27
12536;BME280;6334;48.696;2.114;2022-07-09T09:23:19;101037.91;;;26.70;44.86
12536;BME280;6334;48.696;2.114;2022-07-09T09:25:50;101024.80;;;26.69;43.31
12536;BME280;6334;48.696;2.114;2022-07-09T09:28:20;101032.58;;;26.69;44.25
12536;BME280;6334;48.696;2.114;2022-07-09T09:30:51;101031.52;;;26.96;45.43
12536;BME280;6334;48.696;2.114;2022-07-09T09:33:21;101028.95;;;27.17;43.61
12536;BME280;6334;48.696;2.114;2022-07-09T09:35:51;101029.87;;;27.01;44.39
12536;BME280;6334;48.696;2.114;2022-07-09T09:38:22;101035.95;;;27.30;44.24
12536;BME280;6334;48.696;2.114;2022-07-09T09:40:54;101033.17;;;27.51;43.64
12536;BME280;6334;48.696;2.114;2022-07-09T09:43:24;101029.30;;;27.03;43.55
12536;BME280;6334;48.696;2.114;2022-07-09T09:45:55;101033.49;;;26.95;43.29
12536;BME280;6334;48.696;2.114;2022-07-09T09:48:25;101031.78;;;27.11;44.38
12536;BME280;6334;48.696;2.114;2022-07-09T09:50:56;101033.74;;;26.94;43.80
12536;BME280;6334;48.696;2.114;2022-07-09T09:53:26;101031.34;;;27.14;44.04
12536;BME280;6334;48.696;2.114;2022-07-09T09:55:56;101028.78;;;27.22;44.30
12536;BME280;6334;48.696;2.114;2022-07-09T09:58:27;101029.67;;;27.32;44.20
12536;BME280;6334;48.696;2.114;2022-07-09T10:00:57;101038.27;;;27.04;45.03
12536;BME280;6334;48.696;2.114;2022-07-09T10:03:29;101023.45;;;27.00;44.62
12536;BME280;6334;48.696;2.114;2022-07-09T10:05:58;101040.80;;;27.23;43.43
12536;BME280;6334;48.696;2.114;2022-07-09T10:08:29;101042.46;;;27.26;44.02
12536;BME280;6334;48.696;2.114;2022-07-09T10:10:59;101044.62;;;26.54;45.99
12536;BME280;6334;48.696;2.114;2022-07-09T10:13:30;101042.06;;;27.29;44.98
12536;BME280;6334;48.696;2.114;2022-07-09T10:16:00;101036.64;;;26.93;44.22
12536;BME280;6334;48.696;2.114;2022-07-09T10:18:31;101038.55;;;26.94;43.24
12536;BME280;6334;48.696;2.114;2022-07-09T10:21:01;101014.30;;;27.35;43.67
12536;BME280;6334;48.696;2.114;2022-07-09T10:23:32;101033.44;;;27.18;44.45
12536;BME280;6334;48.696;2.114;2022-07-09T10:26:02;101028.26;;;27.49;44.29
12536;BME280;6334;48.696;2.114;2022-07-09T10:28:39;101019.92;;;27.47;44.24
12536;BME280;6334;48.696;2.114;2022-07-09T10:31:09;101022.95;;;27.02;44.79
12536;BME280;6334;48.696;2.114;2022-07-09T10:33:42;101024.89;;;27.38;43.37
12536;BME280;6334;48.696;2.114;2022-07-09T10:36:13;101020.75;;;27.22;44.12
12536;BME280;6334;48.696;2.114;2022-07-09T10:38:40;101024.70;;;27.41;43.06
12536;BME280;6334;48.696;2.114;2022-07-09T10:41:20;101024.55;;;27.38;42.38
12536;BME280;6334;48.696;2.114;2022-07-09T10:43:42;101023.83;;;27.32;42.46
12536;BME280;6334;48.696;2.114;2022-07-09T10:46:13;101021.02;;;27.07;42.43
12536;BME280;6334;48.696;2.114;2022-07-09T10:48:43;100978.81;;;27.44;42.57
12536;BME280;6334;48.696;2.114;2022-07-09T10:51:18;101004.47;;;27.64;42.83
12536;BME280;6334;48.696;2.114;2022-07-09T10:53:49;101010.84;;;27.42;42.56
12536;BME280;6334;48.696;2.114;2022-07-09T10:56:22;101005.92;;;27.53;43.44
12536;BME280;6334;48.696;2.114;2022-07-09T10:58:49;101009.35;;;27.54;43.79
12536;BME280;6334;48.696;2.114;2022-07-09T11:01:20;101006.44;;;27.53;43.08
12536;BME280;6334;48.696;2.114;2022-07-09T11:03:50;101002.11;;;27.57;42.60
12536;BME280;6334;48.696;2.114;2022-07-09T11:06:21;101011.65;;;27.86;42.52
12536;BME280;6334;48.696;2.114;2022-07-09T11:08:51;101003.19;;;27.54;43.03
12536;BME280;6334;48.696;2.114;2022-07-09T11:11:22;101003.40;;;27.92;42.44
12536;BME280;6334;48.696;2.114;2022-07-09T11:13:52;100992.64;;;27.65;42.57
12536;BME280;6334;48.696;2.114;2022-07-09T11:16:23;100985.16;;;27.88;41.68
12536;BME280;6334;48.696;2.114;2022-07-09T11:18:53;100980.86;;;27.94;41.63
12536;BME280;6334;48.696;2.114;2022-07-09T11:21:24;100979.41;;;27.64;42.28
12536;BME280;6334;48.696;2.114;2022-07-09T11:23:54;100984.36;;;27.38;44.41
12536;BME280;6334;48.696;2.114;2022-07-09T11:26:25;100983.96;;;27.49;43.18
12536;BME280;6334;48.696;2.114;2022-07-09T11:28:55;100985.83;;;27.64;43.68
12536;BME280;6334;48.696;2.114;2022-07-09T11:31:25;100981.63;;;27.77;42.15
12536;BME280;6334;48.696;2.114;2022-07-09T11:33:56;100976.64;;;27.87;42.16
12536;BME280;6334;48.696;2.114;2022-07-09T11:36:39;100963.47;;;27.65;41.30
12536;BME280;6334;48.696;2.114;2022-07-09T11:39:09;100965.55;;;27.98;41.57
12536;BME280;6334;48.696;2.114;2022-07-09T11:41:40;100954.17;;;27.65;41.70
12536;BME280;6334;48.696;2.114;2022-07-09T11:44:10;100951.62;;;27.25;42.64
12536;BME280;6334;48.696;2.114;2022-07-09T11:46:40;100955.77;;;27.57;42.99
12536;BME280;6334;48.696;2.114;2022-07-09T11:49:14;100951.56;;;27.88;42.46
12536;BME280;6334;48.696;2.114;2022-07-09T11:51:44;100959.79;;;27.83;41.67
12536;BME280;6334;48.696;2.114;2022-07-09T11:54:14;100953.25;;;28.00;41.43
12536;BME280;6334;48.696;2.114;2022-07-09T11:56:46;100959.73;;;28.30;41.07
12536;BME280;6334;48.696;2.114;2022-07-09T11:59:26;100953.72;;;28.32;41.06
12536;BME280;6334;48.696;2.114;2022-07-09T12:01:59;100954.30;;;28.22;40.88
12536;BME280;6334;48.696;2.114;2022-07-09T12:04:31;100949.41;;;28.31;40.69
12536;BME280;6334;48.696;2.114;2022-07-09T12:07:01;100948.25;;;27.75;42.55
12536;BME280;6334;48.696;2.114;2022-07-09T12:09:32;100927.31;;;27.18;42.27
12536;BME280;6334;48.696;2.114;2022-07-09T12:12:02;100940.30;;;27.27;42.83
12536;BME280;6334;48.696;2.114;2022-07-09T12:14:32;100935.69;;;27.83;41.90
12536;BME280;6334;48.696;2.114;2022-07-09T12:17:03;100938.86;;;27.62;42.77
12536;BME280;6334;48.696;2.114;2022-07-09T12:19:33;100934.76;;;27.13;42.85
12536;BME280;6334;48.696;2.114;2022-07-09T12:22:04;100936.33;;;27.08;44.25
12536;BME280;6334;48.696;2.114;2022-07-09T12:24:34;100932.29;;;27.10;42.75
12536;BME280;6334;48.696;2.114;2022-07-09T12:27:05;100929.53;;;27.69;42.39
12536;BME280;6334;48.696;2.114;2022-07-09T12:29:35;100932.70;;;27.75;42.59
12536;BME280;6334;48.696;2.114;2022-07-09T12:32:06;100931.03;;;27.83;42.49
12536;BME280;6334;48.696;2.114;2022-07-09T12:34:36;100885.22;;;27.59;42.68
12536;BME280;6334;48.696;2.114;2022-07-09T12:37:07;100926.53;;;27.78;42.38
12536;BME280;6334;48.696;2.114;2022-07-09T12:39:37;100924.16;;;27.60;40.74
12536;BME280;6334;48.696;2.114;2022-07-09T12:42:07;100921.89;;;27.71;40.68
12536;BME280;6334;48.696;2.114;2022-07-09T12:44:39;100920.73;;;28.02;41.57
12536;BME280;6334;48.696;2.114;2022-07-09T12:47:10;100920.23;;;27.90;42.26
12536;BME280;6334;48.696;2.114;2022-07-09T12:49:40;100917.91;;;28.24;41.47
12536;BME280;6334;48.696;2.114;2022-07-09T12:52:11;100909.24;;;28.32;41.41
12536;BME280;6334;48.696;2.114;2022-07-09T12:54:41;100899.44;;;27.95;41.70
12536;BME280;6334;48.696;2.114;2022-07-09T12:57:12;100896.80;;;27.55;42.05
12536;BME280;6334;48.696;2.114;2022-07-09T12:59:42;100902.22;;;28.12;40.62
12536;BME280;6334;48.696;2.114;2022-07-09T13:02:13;100905.16;;;28.17;40.29
12536;BME280;6334;48.696;2.114;2022-07-09T13:04:43;100845.17;;;28.40;39.31
12536;BME280;6334;48.696;2.114;2022-07-09T13:07:14;100890.43;;;28.54;39.33
12536;BME280;6334;48.696;2.114;2022-07-09T13:09:44;100852.33;;;28.45;39.52
12536;BME280;6334;48.696;2.114;2022-07-09T13:12:15;100881.44;;;28.61;39.87
12536;BME280;6334;48.696;2.114;2022-07-09T13:14:45;100879.49;;;28.72;39.90
12536;BME280;6334;48.696;2.114;2022-07-09T13:17:16;100877.20;;;28.33;40.18